Time;durP1;ratioP1;P1;durP2;ratioP2;P2;SDS_P1;SDS_P2;PMS_P1;PMS_P2;Temp;Humidity;BMP_temperature;BMP_pressure;BME280_temperature;BME280_humidity;BME280_pressure;Samples;Min_cycle;Max_cycle;Signal;HPM_P1;HPM_P2
2023/04/22 00:00:07;;;;;;;3.30;2.97;;;9.50;99.90;;;;;;5043433;28;20437;-71
2023/04/22 00:02:35;;;;;;;3.30;2.20;;;9.40;99.90;;;;;;5042342;28;20195;-70
2023/04/22 00:05:02;;;;;;;2.80;2.50;;;9.50;99.90;;;;;;5043645;28;20438;-71
2023/04/22 00:07:27;;;;;;;2.03;1.83;;;9.40;99.90;;;;;;5043210;28;20406;-71
2023/04/22 00:09:53;;;;;;;2.77;2.47;;;9.40;99.90;;;;;;5042178;28;20434;-70
2023/04/22 00:12:19;;;;;;;5.73;2.77;;;9.50;99.90;;;;;;5043980;28;20241;-70
2023/04/22 00:14:44;;;;;;;2.63;2.40;;;9.40;99.90;;;;;;5043341;28;20199;-68
2023/04/22 00:17:10;;;;;;;5.70;2.07;;;9.40;99.90;;;;;;5044014;28;20179;-71
2023/04/22 00:19:36;;;;;;;2.83;2.30;;;9.40;99.90;;;;;;5041677;28;20180;-69
2023/04/22 00:22:02;;;;;;;2.57;2.10;;;9.40;99.90;;;;;;5033557;28;20218;-69
2023/04/22 00:24:28;;;;;;;4.53;1.83;;;9.40;99.90;;;;;;5033421;28;20171;-69
2023/04/22 00:26:54;;;;;;;2.37;1.70;;;9.40;99.90;;;;;;5031924;28;20900;-69
2023/04/22 00:29:19;;;;;;;2.87;2.57;;;9.30;99.90;;;;;;5033467;28;20403;-69
2023/04/22 00:31:45;;;;;;;1.93;1.70;;;9.40;99.90;;;;;;5033271;28;20222;-69
2023/04/22 00:34:10;;;;;;;2.00;1.80;;;9.30;99.90;;;;;;5033018;28;20171;-69
2023/04/22 00:36:36;;;;;;;2.50;2.20;;;9.30;99.90;;;;;;5033176;28;20644;-69
2023/04/22 00:39:01;;;;;;;2.20;1.93;;;9.30;99.90;;;;;;5032952;28;20198;-69
2023/04/22 00:41:27;;;;;;;3.10;2.60;;;9.20;99.90;;;;;;5033032;28;20763;-69
2023/04/22 00:43:53;;;;;;;4.40;2.27;;;9.20;99.90;;;;;;5033282;28;20190;-69
2023/04/22 00:46:19;;;;;;;3.47;2.23;;;9.20;99.90;;;;;;5033250;28;20526;-69
2023/04/22 00:48:45;;;;;;;6.83;2.47;;;9.20;99.90;;;;;;5032836;28;20400;-69
2023/04/22 00:51:11;;;;;;;2.40;2.20;;;9.30;99.90;;;;;;5032914;28;20434;-68
2023/04/22 00:53:36;;;;;;;3.37;2.87;;;9.30;99.90;;;;;;5033011;28;20434;-68
2023/04/22 00:56:03;;;;;;;3.20;2.00;;;9.20;99.90;;;;;;5032433;28;20191;-68
2023/04/22 00:58:29;;;;;;;2.20;2.00;;;9.30;99.90;;;;;;5032393;28;20163;-70
2023/04/22 01:00:55;;;;;;;6.10;2.70;;;9.30;99.90;;;;;;5032585;28;20963;-69
2023/04/22 01:03:21;;;;;;;4.73;2.87;;;9.30;99.90;;;;;;5032545;28;20434;-69
2023/04/22 01:05:50;;;;;;;3.07;2.77;;;9.30;99.90;;;;;;5032392;28;20661;-69
2023/04/22 01:08:16;;;;;;;3.13;2.40;;;9.30;99.90;;;;;;5032057;28;20814;-69
2023/04/22 01:10:42;;;;;;;3.57;2.70;;;9.30;99.90;;;;;;5032548;28;20460;-69
2023/04/22 01:13:08;;;;;;;3.97;3.43;;;9.40;99.90;;;;;;5031058;28;20462;-70
2023/04/22 01:15:33;;;;;;;6.70;3.60;;;9.40;99.90;;;;;;5032380;28;20253;-69
2023/04/22 01:18:00;;;;;;;2.93;2.67;;;9.40;99.90;;;;;;5032073;28;20492;-69
2023/04/22 01:20:30;;;;;;;3.80;3.40;;;9.40;99.90;;;;;;5032238;28;20175;-69
2023/04/22 01:22:57;;;;;;;3.37;3.10;;;9.40;99.90;;;;;;5030808;28;20421;-70
2023/04/22 01:25:24;;;;;;;3.93;3.23;;;9.50;99.90;;;;;;5032010;28;20417;-69
2023/04/22 01:27:50;;;;;;;7.00;3.70;;;9.50;99.90;;;;;;5031933;28;20403;-68
2023/04/22 01:30:16;;;;;;;4.37;3.53;;;9.50;99.90;;;;;;5032191;28;20410;-68
2023/04/22 01:32:41;;;;;;;6.20;4.33;;;9.50;99.90;;;;;;5030994;28;20185;-69
2023/04/22 01:35:08;;;;;;;4.73;4.17;;;9.40;99.90;;;;;;5032215;28;20935;-69
2023/04/22 01:37:34;;;;;;;7.30;5.80;;;9.40;99.90;;;;;;5031992;28;20167;-69
2023/04/22 01:40:00;;;;;;;6.60;4.30;;;9.50;99.90;;;;;;5030666;28;20785;-69
2023/04/22 01:42:26;;;;;;;5.80;5.20;;;9.50;99.90;;;;;;5032163;28;20191;-69
2023/04/22 01:44:52;;;;;;;8.20;5.97;;;9.50;99.90;;;;;;5030857;28;20441;-69
2023/04/22 01:47:17;;;;;;;8.07;6.90;;;9.50;99.90;;;;;;5031841;28;20402;-69
2023/04/22 01:49:43;;;;;;;13.33;8.07;;;9.50;99.90;;;;;;5032000;28;20198;-69
2023/04/22 01:52:08;;;;;;;9.60;6.80;;;9.50;99.90;;;;;;5032045;28;20167;-69
2023/04/22 01:54:34;;;;;;;11.50;7.40;;;9.50;99.90;;;;;;5032067;28;20187;-69
2023/04/22 01:57:08;;;;;;;9.70;7.27;;;9.40;99.90;;;;;;5031736;28;20320;-69
2023/04/22 01:59:34;;;;;;;10.37;7.23;;;9.50;99.90;;;;;;5033855;28;20167;-70
2023/04/22 02:01:59;;;;;;;13.40;7.20;;;9.50;99.90;;;;;;5033197;28;20496;-69
2023/04/22 02:04:25;;;;;;;8.90;8.00;;;9.50;99.90;;;;;;5031838;28;20535;-69
2023/04/22 02:06:51;;;;;;;9.33;7.10;;;9.50;99.90;;;;;;5034234;28;20174;-67
2023/04/22 02:09:16;;;;;;;11.37;7.67;;;9.60;99.90;;;;;;5037557;28;20164;-70
2023/04/22 02:11:42;;;;;;;9.40;6.17;;;9.50;99.90;;;;;;5039083;28;20171;-69
2023/04/22 02:14:07;;;;;;;10.93;7.30;;;9.60;99.90;;;;;;5036847;28;20179;-69
2023/04/22 02:16:33;;;;;;;9.20;6.27;;;9.60;99.90;;;;;;5038366;28;20245;-70
2023/04/22 02:18:59;;;;;;;9.70;7.53;;;9.60;99.90;;;;;;5034907;28;20203;-69
2023/04/22 02:21:25;;;;;;;8.53;6.10;;;9.60;99.90;;;;;;5035726;28;20223;-69
2023/04/22 02:23:50;;;;;;;9.30;7.70;;;9.60;99.90;;;;;;5034376;28;20292;-69
2023/04/22 02:26:16;;;;;;;7.90;7.10;;;9.60;99.90;;;;;;5034894;28;20502;-70
2023/04/22 02:28:41;;;;;;;9.57;7.50;;;9.50;99.90;;;;;;5039005;28;20172;-71
2023/04/22 02:31:07;;;;;;;10.37;7.80;;;9.50;99.90;;;;;;5038058;28;20195;-70
2023/04/22 02:33:32;;;;;;;8.43;7.00;;;9.60;99.90;;;;;;5037072;28;20179;-70
2023/04/22 02:35:58;;;;;;;10.13;7.67;;;9.50;99.90;;;;;;5037266;28;20195;-69
2023/04/22 02:38:23;;;;;;;13.23;7.73;;;9.60;99.90;;;;;;5038996;28;20681;-70
2023/04/22 02:40:49;;;;;;;10.90;8.63;;;9.70;99.90;;;;;;5038299;28;20207;-70
2023/04/22 02:43:14;;;;;;;9.90;6.93;;;9.70;99.90;;;;;;5038502;28;20179;-70
2023/04/22 02:45:40;;;;;;;12.93;9.70;;;9.70;99.90;;;;;;5038535;28;20188;-70
2023/04/22 02:48:05;;;;;;;10.47;8.67;;;9.70;99.90;;;;;;5039300;28;20250;-70
2023/04/22 02:50:31;;;;;;;13.70;8.80;;;9.60;99.90;;;;;;5034564;28;20168;-69
2023/04/22 02:52:56;;;;;;;11.63;7.40;;;9.70;99.90;;;;;;5035168;28;20172;-69
2023/04/22 02:55:23;;;;;;;11.13;8.33;;;9.70;99.90;;;;;;5035178;28;20544;-69
2023/04/22 02:57:49;;;;;;;9.93;7.40;;;9.80;99.90;;;;;;5034769;28;20246;-69
2023/04/22 03:00:15;;;;;;;10.97;7.83;;;9.80;99.90;;;;;;5035008;28;20986;-69
2023/04/22 03:02:40;;;;;;;9.33;8.30;;;9.80;99.90;;;;;;5034681;28;20449;-69
2023/04/22 03:05:06;;;;;;;10.03;8.00;;;9.80;99.90;;;;;;5034888;28;20747;-69
2023/04/22 03:07:32;;;;;;;9.43;7.20;;;9.80;99.90;;;;;;5034468;28;20198;-69
2023/04/22 03:09:57;;;;;;;10.07;7.60;;;9.90;99.90;;;;;;5034763;28;20903;-69
2023/04/22 03:12:24;;;;;;;9.53;7.60;;;9.80;99.90;;;;;;5034485;28;20183;-69
2023/04/22 03:14:49;;;;;;;11.83;8.47;;;9.80;99.90;;;;;;5033385;28;20199;-69
2023/04/22 03:17:15;;;;;;;12.07;7.90;;;9.80;99.90;;;;;;5034165;28;20402;-69
2023/04/22 03:19:41;;;;;;;12.87;7.70;;;9.80;99.90;;;;;;5034642;28;20207;-69
2023/04/22 03:22:06;;;;;;;11.40;7.70;;;9.80;99.90;;;;;;5033183;28;20203;-69
2023/04/22 03:24:32;;;;;;;11.87;8.90;;;9.70;99.90;;;;;;5034538;28;20663;-69
2023/04/22 03:26:57;;;;;;;15.00;8.97;;;9.80;99.90;;;;;;5034021;28;20171;-69
2023/04/22 03:29:23;;;;;;;11.30;9.20;;;9.80;99.90;;;;;;5033139;28;20640;-69
2023/04/22 03:31:48;;;;;;;11.30;8.93;;;9.80;99.90;;;;;;5032998;28;20172;-69
2023/04/22 03:34:14;;;;;;;11.77;8.00;;;9.80;99.90;;;;;;5034317;28;20533;-69
2023/04/22 03:36:40;;;;;;;12.77;9.07;;;9.90;99.90;;;;;;5034248;28;20178;-69
2023/04/22 03:39:05;;;;;;;9.07;7.27;;;10.00;99.90;;;;;;5033940;28;20160;-70
2023/04/22 03:41:31;;;;;;;11.97;9.10;;;10.00;99.90;;;;;;5034013;28;20458;-69
2023/04/22 03:43:56;;;;;;;9.33;7.43;;;10.10;99.90;;;;;;5034161;28;20540;-69
2023/04/22 03:46:22;;;;;;;8.77;7.27;;;10.20;99.90;;;;;;5033895;28;20198;-69
2023/04/22 03:48:47;;;;;;;13.90;8.77;;;10.30;99.90;;;;;;5033765;28;20163;-69
2023/04/22 03:51:13;;;;;;;10.43;7.70;;;10.30;99.90;;;;;;5033971;28;20175;-69
2023/04/22 03:53:38;;;;;;;11.83;8.37;;;10.40;99.90;;;;;;5033806;28;20718;-70
2023/04/22 03:56:04;;;;;;;10.53;7.53;;;10.40;99.90;;;;;;5032611;28;20560;-69
2023/04/22 03:58:30;;;;;;;8.80;6.87;;;10.40;99.90;;;;;;5032092;28;20775;-70
2023/04/22 04:00:55;;;;;;;9.43;7.77;;;10.50;99.90;;;;;;5032499;28;20454;-70
2023/04/22 04:03:21;;;;;;;11.30;8.03;;;10.50;99.90;;;;;;5033420;28;20172;-70
2023/04/22 04:05:46;;;;;;;8.83;7.17;;;10.50;99.90;;;;;;5032960;28;20289;-69
2023/04/22 04:08:12;;;;;;;10.43;6.73;;;10.40;99.90;;;;;;5032859;28;20715;-70
2023/04/22 04:10:37;;;;;;;11.17;7.40;;;10.40;99.90;;;;;;5033627;28;20251;-69
2023/04/22 04:13:03;;;;;;;10.07;7.80;;;10.40;99.90;;;;;;5033559;28;20545;-70
2023/04/22 04:15:29;;;;;;;10.43;7.70;;;10.30;99.90;;;;;;5033319;28;20184;-69
2023/04/22 04:17:55;;;;;;;9.33;6.97;;;10.30;99.90;;;;;;5031752;28;20163;-69
2023/04/22 04:20:21;;;;;;;8.30;6.30;;;10.20;99.90;;;;;;5033171;28;20428;-69
2023/04/22 04:22:47;;;;;;;10.47;7.17;;;10.30;99.90;;;;;;5033286;28;20441;-70
2023/04/22 04:25:12;;;;;;;11.93;7.43;;;10.30;99.90;;;;;;5033329;28;20426;-69
2023/04/22 04:27:38;;;;;;;11.23;8.10;;;10.30;99.90;;;;;;5032990;28;20633;-69
2023/04/22 04:30:05;;;;;;;9.43;6.93;;;10.30;99.90;;;;;;5031337;28;20538;-69
2023/04/22 04:32:33;;;;;;;9.33;6.70;;;10.30;99.90;;;;;;5033128;28;20582;-69
2023/04/22 04:34:59;;;;;;;9.50;5.83;;;10.20;99.90;;;;;;5033051;28;20421;-69
2023/04/22 04:37:25;;;;;;;13.33;6.50;;;10.20;99.90;;;;;;5032854;28;20413;-69
2023/04/22 04:39:50;;;;;;;7.03;6.33;;;10.30;99.90;;;;;;5031806;28;20498;-69
2023/04/22 04:42:16;;;;;;;7.93;6.90;;;10.20;99.90;;;;;;5032907;28;21031;-70
2023/04/22 04:44:42;;;;;;;8.17;6.03;;;10.20;99.90;;;;;;5032404;28;20274;-69
2023/04/22 04:47:07;;;;;;;7.70;5.90;;;10.20;99.90;;;;;;5032860;28;20174;-69
2023/04/22 04:49:38;;;;;;;6.80;6.10;;;10.20;99.90;;;;;;5032439;28;20160;-69
2023/04/22 04:52:04;;;;;;;8.30;6.73;;;10.30;99.90;;;;;;5031503;28;20644;-69
2023/04/22 04:54:30;;;;;;;6.90;6.03;;;10.30;99.90;;;;;;5031176;28;20556;-70
2023/04/22 04:56:56;;;;;;;7.07;6.13;;;10.30;99.90;;;;;;5031061;28;20493;-69
2023/04/22 04:59:21;;;;;;;6.90;6.10;;;10.30;99.90;;;;;;5032055;28;20171;-69
2023/04/22 05:01:47;;;;;;;10.83;6.30;;;10.30;99.90;;;;;;5032623;28;20499;-69
2023/04/22 05:04:12;;;;;;;9.67;6.40;;;10.20;99.90;;;;;;5032429;28;20579;-70
2023/04/22 05:06:38;;;;;;;9.27;5.30;;;10.20;99.90;;;;;;5032202;28;20163;-70
2023/04/22 05:09:04;;;;;;;6.43;5.73;;;10.30;99.90;;;;;;5032220;28;20167;-69
2023/04/22 05:11:29;;;;;;;6.17;4.63;;;10.30;99.90;;;;;;5032441;28;20233;-69
2023/04/22 05:13:55;;;;;;;7.50;5.63;;;10.30;99.90;;;;;;5032572;28;20248;-69
2023/04/22 05:16:21;;;;;;;6.60;5.10;;;10.40;99.90;;;;;;5032165;28;20192;-69
2023/04/22 05:18:46;;;;;;;6.10;4.90;;;10.40;99.90;;;;;;5032147;28;20203;-69
2023/04/22 05:21:12;;;;;;;6.70;5.73;;;10.50;99.90;;;;;;5032150;28;20221;-69
2023/04/22 05:23:38;;;;;;;6.30;4.30;;;10.60;99.90;;;;;;5032171;28;20199;-70
2023/04/22 05:26:03;;;;;;;7.97;5.47;;;10.60;99.90;;;;;;5032092;28;20230;-69
2023/04/22 05:28:29;;;;;;;5.83;4.80;;;10.70;99.90;;;;;;5031801;28;20749;-70
2023/04/22 05:30:55;;;;;;;5.93;5.23;;;10.80;99.90;;;;;;5032078;28;20559;-69
2023/04/22 05:33:20;;;;;;;7.00;5.40;;;10.90;99.90;;;;;;5032192;28;20168;-70
2023/04/22 05:35:46;;;;;;;6.80;4.73;;;11.20;99.90;;;;;;5031887;28;20571;-69
2023/04/22 05:38:11;;;;;;;6.17;5.50;;;11.60;99.90;;;;;;5031859;28;20659;-69
2023/04/22 05:40:38;;;;;;;11.33;4.97;;;11.80;99.90;;;;;;5031927;28;20171;-69
2023/04/22 05:43:03;;;;;;;6.10;4.70;;;12.00;99.90;;;;;;5031252;28;20174;-69
2023/04/22 05:45:29;;;;;;;5.33;4.57;;;12.00;99.90;;;;;;5030654;28;20430;-70
2023/04/22 05:47:54;;;;;;;6.70;5.40;;;12.00;99.90;;;;;;5031751;28;20224;-69
2023/04/22 05:50:20;;;;;;;5.97;5.07;;;12.00;99.90;;;;;;5032107;28;20268;-69
2023/04/22 05:52:45;;;;;;;7.13;5.13;;;11.90;99.90;;;;;;5032008;28;20171;-69
2023/04/22 05:55:11;;;;;;;5.93;4.50;;;12.00;99.90;;;;;;5031935;28;20199;-69
2023/04/22 05:57:36;;;;;;;6.50;5.17;;;12.00;99.90;;;;;;5031564;28;20182;-69
2023/04/22 06:00:03;;;;;;;7.00;5.17;;;12.00;99.90;;;;;;5030802;28;20175;-68
2023/04/22 06:02:29;;;;;;;5.43;4.53;;;12.00;99.90;;;;;;5030523;28;20226;-69
2023/04/22 06:04:54;;;;;;;5.57;4.83;;;12.10;99.90;;;;;;5031914;28;20422;-69
2023/04/22 06:07:20;;;;;;;6.60;5.13;;;12.10;99.90;;;;;;5031464;28;20246;-70
2023/04/22 06:09:45;;;;;;;7.23;5.90;;;12.20;99.90;;;;;;5031837;28;20163;-70
2023/04/22 06:12:11;;;;;;;6.87;5.40;;;12.20;99.90;;;;;;5031501;28;20549;-69
2023/04/22 06:14:36;;;;;;;6.17;4.47;;;12.10;99.90;;;;;;5030599;28;20187;-69
2023/04/22 06:17:02;;;;;;;6.03;5.00;;;12.10;99.90;;;;;;5031434;28;20172;-70
2023/04/22 06:19:28;;;;;;;8.70;4.63;;;12.20;99.90;;;;;;5030510;28;20589;-69
2023/04/22 06:21:53;;;;;;;5.73;5.17;;;12.50;99.90;;;;;;5031689;28;20477;-70
2023/04/22 06:24:21;;;;;;;4.67;4.20;;;13.20;99.90;;;;;;5031551;28;20174;-70
2023/04/22 06:26:47;;;;;;;5.27;4.80;;;14.20;99.90;;;;;;5031521;28;20535;-70
2023/04/22 06:29:13;;;;;;;6.83;4.87;;;15.40;99.90;;;;;;5031344;28;20406;-70
2023/04/22 06:31:38;;;;;;;5.07;3.10;;;16.80;99.90;;;;;;5031720;28;20203;-70
2023/04/22 06:34:04;;;;;;;4.97;4.17;;;17.60;99.90;;;;;;5030266;28;20175;-70
2023/04/22 06:36:30;;;;;;;7.50;3.10;;;18.40;99.90;;;;;;5031526;28;20191;-70
2023/04/22 06:38:56;;;;;;;3.80;3.20;;;19.30;99.90;;;;;;5030987;28;20485;-70
2023/04/22 06:41:22;;;;;;;2.80;2.37;;;20.30;99.90;;;;;;5031388;28;21038;-70
2023/04/22 06:43:48;;;;;;;3.57;3.23;;;20.70;99.90;;;;;;5031455;28;20176;-70
2023/04/22 06:46:15;;;;;;;4.10;3.70;;;20.60;99.90;;;;;;5031426;28;20483;-70
2023/04/22 06:48:41;;;;;;;3.97;3.57;;;20.20;99.90;;;;;;5031112;28;20164;-69
2023/04/22 06:51:07;;;;;;;4.13;3.60;;;19.50;99.90;;;;;;5031443;28;20489;-70
2023/04/22 06:53:32;;;;;;;3.50;3.20;;;18.90;99.90;;;;;;5032741;28;20831;-70
2023/04/22 06:55:58;;;;;;;3.07;2.77;;;18.00;99.90;;;;;;5034873;28;20258;-70
2023/04/22 06:58:23;;;;;;;5.00;3.50;;;17.30;99.90;;;;;;5033506;28;20294;-69
2023/04/22 07:00:49;;;;;;;3.20;2.90;;;16.80;99.90;;;;;;5034871;28;20537;-70
2023/04/22 07:03:15;;;;;;;3.27;2.97;;;16.60;99.90;;;;;;5034739;28;20599;-70
2023/04/22 07:05:40;;;;;;;3.73;3.37;;;16.50;99.90;;;;;;5034688;28;20191;-70
2023/04/22 07:08:06;;;;;;;3.43;3.10;;;16.60;99.90;;;;;;5034406;28;20243;-70
2023/04/22 07:10:32;;;;;;;6.00;4.00;;;17.50;99.90;;;;;;5034581;28;20163;-70
2023/04/22 07:12:58;;;;;;;2.70;2.27;;;18.70;99.90;;;;;;5034722;28;20233;-69
2023/04/22 07:15:23;;;;;;;2.70;2.47;;;19.70;99.90;;;;;;5034629;28;20426;-70
2023/04/22 07:17:49;;;;;;;3.93;3.53;;;21.00;99.90;;;;;;5034337;28;20250;-70
2023/04/22 07:20:14;;;;;;;3.87;2.77;;;21.60;99.90;;;;;;5034571;28;20203;-68
2023/04/22 07:22:40;;;;;;;4.07;2.83;;;22.20;99.90;;;;;;5034520;28;20580;-68
2023/04/22 07:25:07;;;;;;;2.77;2.50;;;23.20;99.90;;;;;;5034265;28;20237;-68
2023/04/22 07:27:35;;;;;;;3.60;2.87;;;23.80;99.90;;;;;;5033994;28;20409;-68
2023/04/22 07:30:01;;;;;;;4.80;2.40;;;24.30;94.90;;;;;;5033472;28;20402;-68
2023/04/22 07:32:26;;;;;;;4.10;2.97;;;24.70;91.60;;;;;;5034257;28;20869;-68
2023/04/22 07:34:52;;;;;;;2.77;2.57;;;25.10;88.20;;;;;;5034723;28;20505;-69
2023/04/22 07:37:17;;;;;;;3.70;3.10;;;25.80;86.80;;;;;;5033956;28;20163;-70
2023/04/22 07:39:43;;;;;;;2.60;2.40;;;27.00;78.70;;;;;;5034097;28;20168;-71
2023/04/22 07:42:08;;;;;;;2.70;2.50;;;27.80;69.30;;;;;;5032816;28;20261;-68
2023/04/22 07:44:34;;;;;;;2.40;2.20;;;28.30;63.30;;;;;;5032769;28;20183;-68
2023/04/22 07:47:00;;;;;;;4.13;2.40;;;28.60;59.90;;;;;;5032542;28;20229;-68
2023/04/22 07:49:25;;;;;;;3.00;2.70;;;28.90;58.80;;;;;;5034111;28;20160;-68
2023/04/22 07:51:51;;;;;;;3.47;2.80;;;28.80;58.00;;;;;;5032755;28;20540;-68
2023/04/22 07:54:16;;;;;;;2.50;2.20;;;29.40;55.70;;;;;;5033900;28;20706;-68
2023/04/22 07:56:42;;;;;;;2.30;2.10;;;30.00;55.20;;;;;;5033866;28;20246;-68
2023/04/22 07:59:07;;;;;;;2.57;2.37;;;30.60;54.00;;;;;;5033698;28;20217;-68
2023/04/22 08:01:33;;;;;;;5.30;2.83;;;31.50;52.70;;;;;;5033714;28;20191;-69
2023/04/22 08:03:58;;;;;;;2.70;2.50;;;31.60;50.10;;;;;;5032521;28;20164;-70
2023/04/22 08:06:24;;;;;;;3.10;2.57;;;31.30;50.00;;;;;;5031589;28;20684;-69
2023/04/22 08:08:49;;;;;;;4.80;2.60;;;31.10;49.40;;;;;;5032105;28;20267;-70
2023/04/22 08:11:15;;;;;;;2.50;2.30;;;30.60;49.30;;;;;;5033707;28;20172;-69
2023/04/22 08:13:40;;;;;;;2.67;2.43;;;30.90;50.00;;;;;;5033704;28;20188;-69
2023/04/22 08:16:06;;;;;;;2.10;1.90;;;30.80;49.60;;;;;;5033532;28;20726;-70
2023/04/22 08:18:31;;;;;;;3.80;2.50;;;30.60;48.80;;;;;;5031939;28;20258;-69
2023/04/22 08:20:57;;;;;;;2.27;2.07;;;30.60;49.00;;;;;;5033407;28;20203;-69
2023/04/22 08:23:23;;;;;;;2.30;2.00;;;31.10;47.90;;;;;;5033321;28;20187;-69
2023/04/22 08:25:49;;;;;;;2.30;2.10;;;30.20;46.70;;;;;;5033249;28;20187;-69
2023/04/22 08:28:15;;;;;;;5.53;2.17;;;29.50;47.50;;;;;;5033010;28;20410;-67
2023/04/22 08:30:40;;;;;;;2.00;1.80;;;28.70;47.70;;;;;;5033275;28;20172;-69
2023/04/22 08:33:06;;;;;;;2.33;2.13;;;28.10;48.50;;;;;;5033323;28;20170;-68
2023/04/22 08:35:34;;;;;;;1.70;1.60;;;26.40;48.50;;;;;;5032775;28;20230;-69
2023/04/22 08:37:59;;;;;;;1.70;1.60;;;25.80;50.90;;;;;;5032730;28;20164;-69
2023/04/22 08:40:26;;;;;;;3.27;1.77;;;26.00;52.00;;;;;;5031793;28;20410;-68
2023/04/22 08:42:52;;;;;;;2.07;1.80;;;26.70;52.80;;;;;;5032913;28;20566;-69
2023/04/22 08:45:20;;;;;;;2.10;2.00;;;27.70;51.20;;;;;;5032871;28;20842;-70
2023/04/22 08:47:47;;;;;;;2.30;1.67;;;28.50;49.80;;;;;;5032709;28;20490;-69
2023/04/22 08:50:13;;;;;;;6.13;2.10;;;29.40;49.00;;;;;;5033007;28;20409;-69
2023/04/22 08:52:40;;;;;;;2.77;2.00;;;30.20;48.00;;;;;;5032765;28;20801;-69
2023/04/22 08:55:06;;;;;;;1.90;1.57;;;30.80;46.80;;;;;;5032859;28;20238;-70
2023/04/22 08:57:34;;;;;;;1.90;1.80;;;31.00;45.50;;;;;;5031208;28;20406;-71
2023/04/22 09:00:00;;;;;;;2.53;2.33;;;31.60;44.10;;;;;;5033073;28;20444;-69
2023/04/22 09:02:27;;;;;;;2.40;2.20;;;31.20;43.60;;;;;;5031393;28;20857;-71
2023/04/22 09:04:53;;;;;;;1.70;1.60;;;30.70;42.50;;;;;;5031458;28;20557;-71
2023/04/22 09:07:23;;;;;;;2.37;2.23;;;30.90;43.10;;;;;;5031178;28;20411;-70
2023/04/22 09:09:49;;;;;;;3.00;1.90;;;30.80;43.20;;;;;;5032913;28;20765;-71
2023/04/22 09:12:17;;;;;;;1.77;1.67;;;31.90;44.00;;;;;;5031579;28;20536;-71
2023/04/22 09:14:43;;;;;;;2.60;1.80;;;32.00;41.50;;;;;;5032692;28;20184;-71
2023/04/22 09:17:08;;;;;;;2.17;1.80;;;32.10;41.70;;;;;;5032427;28;20406;-71
2023/04/22 09:19:34;;;;;;;4.30;2.00;;;32.40;41.90;;;;;;5031317;28;20406;-69
2023/04/22 09:22:00;;;;;;;2.50;2.10;;;31.70;40.80;;;;;;5032269;28;20660;-69
2023/04/22 09:24:26;;;;;;;2.50;1.70;;;30.60;40.90;;;;;;5032305;28;20172;-69
2023/04/22 09:26:54;;;;;;;1.77;1.63;;;29.50;42.10;;;;;;5032125;28;20911;-71
2023/04/22 09:29:20;;;;;;;2.60;1.87;;;28.70;44.00;;;;;;5032171;28;20629;-69
2023/04/22 09:31:49;;;;;;;4.00;2.57;;;28.90;45.40;;;;;;5030893;28;20464;-69
2023/04/22 09:34:15;;;;;;;2.20;1.73;;;29.30;44.90;;;;;;5032077;28;20548;-69
2023/04/22 09:36:42;;;;;;;2.60;2.40;;;29.60;45.30;;;;;;5045149;28;20429;-69
2023/04/22 09:39:08;;;;;;;1.97;1.80;;;30.00;44.20;;;;;;5038290;28;20637;-69
2023/04/22 09:41:36;;;;;;;1.83;1.70;;;30.40;44.10;;;;;;5030709;28;20449;-69
2023/04/22 09:44:03;;;;;;;2.30;1.80;;;30.10;43.50;;;;;;5030449;28;20262;-69
2023/04/22 09:46:29;;;;;;;1.60;1.50;;;30.50;42.70;;;;;;5039045;28;20453;-69
2023/04/22 09:48:57;;;;;;;2.20;2.10;;;31.20;42.90;;;;;;5039753;28;20787;-71
2023/04/22 09:51:23;;;;;;;1.70;1.60;;;31.70;41.60;;;;;;5044768;28;20506;-71
2023/04/22 09:54:07;;;;;;;3.00;1.90;;;32.40;41.40;;;;;;5040917;28;20935;-71
2023/04/22 09:56:39;;;;;;;2.10;2.00;;;33.40;41.10;;;;;;5037593;28;20459;-71
2023/04/22 09:59:05;;;;;;;2.13;2.03;;;34.20;40.70;;;;;;5042342;28;20862;-70
2023/04/22 10:01:39;;;;;;;2.10;1.90;;;34.20;38.60;;;;;;5052324;28;20547;-71
2023/04/22 10:04:14;;;;;;;1.70;1.60;;;34.40;38.00;;;;;;5050602;28;20174;-71
2023/04/22 10:06:40;;;;;;;2.10;1.90;;;34.60;38.10;;;;;;5060793;28;20417;-73
2023/04/22 10:09:06;;;;;;;2.30;2.10;;;34.50;38.10;;;;;;5050927;28;20398;-70
2023/04/22 10:11:32;;;;;;;2.30;2.10;;;33.20;37.90;;;;;;5052073;28;20761;-70
2023/04/22 10:14:01;;;;;;;2.20;2.07;;;32.70;39.00;;;;;;5051969;28;20458;-71
2023/04/22 10:16:31;;;;;;;1.60;1.50;;;32.40;39.60;;;;;;5049497;28;21007;-71
2023/04/22 10:18:58;;;;;;;3.00;1.77;;;31.20;39.90;;;;;;5039713;28;20456;-69
2023/04/22 10:21:25;;;;;;;2.03;1.73;;;29.20;40.80;;;;;;5031595;28;20476;-69
2023/04/22 10:23:51;;;;;;;1.83;1.73;;;28.40;42.80;;;;;;5030343;28;20421;-69
2023/04/22 10:26:55;;;;;;;4.70;2.27;;;28.50;43.70;;;;;;5031641;28;20414;-69
2023/04/22 10:29:21;;;;;;;5.07;1.80;;;29.00;43.00;;;;;;5049404;28;20910;-69
2023/04/22 10:31:57;;;;;;;4.60;1.90;;;28.50;43.00;;;;;;5053050;28;20510;-69
2023/04/22 10:34:23;;;;;;;2.03;1.80;;;28.40;44.00;;;;;;5051720;28;20185;-68
2023/04/22 10:36:58;;;;;;;2.40;2.20;;;28.00;44.80;;;;;;5053281;28;20421;-69
2023/04/22 10:39:25;;;;;;;2.67;2.23;;;27.20;45.10;;;;;;5054369;28;20539;-69
2023/04/22 10:41:54;;;;;;;3.50;1.97;;;26.50;46.30;;;;;;5051998;28;20604;-69
2023/04/22 10:44:21;;;;;;;2.13;1.93;;;26.10;47.40;;;;;;5044888;28;20425;-69
2023/04/22 10:46:49;;;;;;;1.80;1.70;;;27.40;49.20;;;;;;5046792;28;20401;-69
2023/04/22 10:49:20;;;;;;;2.03;1.83;;;29.50;47.30;;;;;;5055015;28;20404;-69
2023/04/22 10:51:52;;;;;;;4.17;2.40;;;30.90;45.80;;;;;;5053732;28;20926;-68
2023/04/22 10:54:36;;;;;;;1.70;1.60;;;30.20;43.50;;;;;;5053578;28;20425;-69
2023/04/22 10:57:10;;;;;;;3.43;2.13;;;28.60;43.30;;;;;;5050190;28;20426;-69
2023/04/22 10:59:51;;;;;;;2.63;2.43;;;28.00;45.60;;;;;;5054939;28;20484;-69
2023/04/22 11:02:17;;;;;;;3.03;1.77;;;27.00;45.40;;;;;;5054842;28;20460;-69
2023/04/22 11:04:43;;;;;;;2.70;2.50;;;27.20;47.20;;;;;;5052455;28;20445;-69
2023/04/22 11:07:36;;;;;;;2.57;2.37;;;27.90;47.30;;;;;;5053071;28;20413;-69
2023/04/22 11:10:09;;;;;;;3.17;1.70;;;27.70;47.00;;;;;;5054580;28;20193;-69
2023/04/22 11:12:37;;;;;;;1.80;1.70;;;27.70;46.90;;;;;;5053225;28;20425;-69
2023/04/22 11:15:16;;;;;;;2.50;2.30;;;29.20;47.20;;;;;;5053210;28;20440;-69
2023/04/22 11:17:43;;;;;;;2.50;1.97;;;30.70;44.80;;;;;;5051893;28;20432;-70
2023/04/22 11:20:10;;;;;;;2.00;1.80;;;31.50;43.30;;;;;;5053437;28;20911;-70
2023/04/22 11:22:37;;;;;;;2.83;2.63;;;32.10;42.50;;;;;;5044870;28;20991;-70
2023/04/22 11:25:04;;;;;;;3.10;2.10;;;33.10;41.20;;;;;;5054300;28;20432;-70
2023/04/22 11:27:30;;;;;;;2.47;2.13;;;33.70;40.10;;;;;;5037638;28;20488;-69
2023/04/22 11:30:08;;;;;;;3.40;2.00;;;34.30;39.30;;;;;;5049737;28;20444;-69
2023/04/22 11:32:42;;;;;;;2.70;2.50;;;34.40;39.00;;;;;;5052242;28;20499;-69
2023/04/22 11:35:14;;;;;;;3.47;2.37;;;34.40;38.20;;;;;;5042354;28;20429;-69
2023/04/22 11:37:40;;;;;;;6.40;2.27;;;34.20;38.80;;;;;;5049785;28;20429;-69
2023/04/22 11:40:36;;;;;;;5.80;2.80;;;35.30;39.60;;;;;;5050281;28;20421;-69
2023/04/22 11:43:04;;;;;;;3.20;2.37;;;35.00;38.30;;;;;;5053019;28;20553;-69
2023/04/22 11:45:32;;;;;;;5.93;2.00;;;35.40;39.20;;;;;;5052873;28;20796;-70
2023/04/22 11:47:59;;;;;;;4.33;2.27;;;36.20;38.70;;;;;;5041282;28;20413;-71
2023/04/22 11:50:30;;;;;;;3.80;2.17;;;36.00;38.00;;;;;;5041208;28;21033;-71
2023/04/22 11:52:59;;;;;;;2.57;2.10;;;34.80;36.80;;;;;;5053821;28;20833;-71
2023/04/22 11:55:31;;;;;;;4.00;2.10;;;34.20;38.00;;;;;;5053702;28;20436;-71
2023/04/22 11:58:13;;;;;;;2.13;1.93;;;32.90;39.30;;;;;;5052880;28;20483;-70
2023/04/22 12:00:47;;;;;;;2.37;2.17;;;32.10;40.20;;;;;;5052544;28;20413;-71
2023/04/22 12:03:20;;;;;;;6.87;3.00;;;31.10;41.00;;;;;;5033937;28;20504;-69
2023/04/22 12:05:46;;;;;;;2.57;2.37;;;30.90;42.80;;;;;;5040659;28;20996;-70
2023/04/22 12:08:16;;;;;;;2.30;2.10;;;30.70;42.60;;;;;;5045967;28;20414;-69
2023/04/22 12:10:56;;;;;;;2.63;2.43;;;29.50;42.40;;;;;;5049709;28;20508;-71
2023/04/22 12:13:35;;;;;;;3.23;2.73;;;29.10;44.10;;;;;;5049004;28;20431;-71
2023/04/22 12:16:20;;;;;;;2.93;2.07;;;28.00;45.10;;;;;;5053620;28;20409;-71
2023/04/22 12:19:04;;;;;;;2.53;1.87;;;27.60;46.80;;;;;;5051890;28;20436;-71
2023/04/22 12:21:30;;;;;;;4.57;2.43;;;27.30;48.10;;;;;;5050237;28;20463;-69
2023/04/22 12:24:10;;;;;;;2.73;2.53;;;26.70;48.10;;;;;;5052980;28;20428;-69
2023/04/22 12:26:36;;;;;;;2.60;2.23;;;26.40;49.10;;;;;;5052355;28;20532;-69
2023/04/22 12:29:02;;;;;;;2.00;1.80;;;26.90;49.50;;;;;;5040182;28;20406;-69
2023/04/22 12:31:28;;;;;;;2.60;2.17;;;26.50;49.30;;;;;;5047060;28;20441;-69
2023/04/22 12:33:54;;;;;;;3.70;2.33;;;26.10;50.60;;;;;;5044701;28;20167;-69
2023/04/22 12:36:20;;;;;;;3.20;2.10;;;25.20;51.50;;;;;;5051800;28;20191;-69
2023/04/22 12:38:46;;;;;;;2.57;2.37;;;24.80;53.30;;;;;;5051772;28;20433;-69
2023/04/22 12:41:12;;;;;;;3.50;2.47;;;24.70;54.40;;;;;;5049956;28;20461;-68
2023/04/22 12:43:38;;;;;;;14.57;2.80;;;24.80;54.00;;;;;;5047082;28;20856;-69
2023/04/22 12:46:06;;;;;;;2.77;2.50;;;24.60;53.10;;;;;;5047886;28;20219;-68